Time;durP1;ratioP1;P1;durP2;ratioP2;P2;SDS_P1;SDS_P2;PMS_P1;PMS_P2;Temp;Humidity;BMP_temperature;BMP_pressure;BME280_temperature;BME280_humidity;BME280_pressure;Samples;Min_cycle;Max_cycle;Signal;HPM_P1;HPM_P2
2024/04/02 00:00:41;;;;;;;1.35;1.25;;;9.10;99.20;;;;;;4997427;28;20027;-88
2024/04/02 00:03:08;;;;;;;1.83;0.98;;;9.10;99.60;;;;;;4997843;28;20080;-91
2024/04/02 00:05:35;;;;;;;1.45;1.35;;;9.00;99.10;;;;;;4997629;28;20038;-90
2024/04/02 00:08:05;;;;;;;1.50;1.00;;;9.10;99.50;;;;;;5000841;28;20070;-89
2024/04/02 00:10:32;;;;;;;2.30;1.35;;;9.10;98.60;;;;;;4980355;28;20037;-93
2024/04/02 00:12:58;;;;;;;2.22;2.13;;;9.20;98.40;;;;;;5005943;28;20029;-88
2024/04/02 00:15:24;;;;;;;2.28;1.35;;;9.20;97.90;;;;;;4997201;28;20023;-88
2024/04/02 00:17:50;;;;;;;1.10;1.00;;;9.10;98.30;;;;;;5004512;28;20022;-89
2024/04/02 00:20:15;;;;;;;1.30;1.05;;;9.10;98.80;;;;;;5005156;28;20029;-90
2024/04/02 00:22:41;;;;;;;1.75;1.65;;;9.00;98.80;;;;;;5005941;28;20027;-89
2024/04/02 00:25:07;;;;;;;1.35;1.25;;;9.10;98.30;;;;;;4981358;28;20054;-89
2024/04/02 00:27:33;;;;;;;1.20;1.20;;;9.10;98.80;;;;;;4997369;28;20101;-88
2024/04/02 00:29:58;;;;;;;2.00;1.17;;;9.00;98.90;;;;;;4980502;28;20028;-88
2024/04/02 00:32:24;;;;;;;1.92;1.83;;;9.00;98.50;;;;;;4997081;28;20026;-89
2024/04/02 00:34:50;;;;;;;1.35;1.25;;;9.00;98.90;;;;;;4997475;28;20026;-90
2024/04/02 00:37:16;;;;;;;1.65;1.05;;;9.00;98.80;;;;;;4997219;28;20033;-89
2024/04/02 00:39:46;;;;;;;2.35;1.50;;;9.00;98.80;;;;;;5004382;28;20094;-89
2024/04/02 00:42:12;;;;;;;1.75;1.13;;;9.00;98.90;;;;;;4987290;28;20436;-89
2024/04/02 00:44:38;;;;;;;2.05;1.20;;;8.90;99.20;;;;;;4989365;28;20037;-91
2024/04/02 00:47:06;;;;;;;1.42;1.25;;;9.00;98.90;;;;;;4996340;28;20034;-92
2024/04/02 00:49:32;;;;;;;2.17;1.52;;;9.00;98.90;;;;;;4979217;28;20057;-88
2024/04/02 00:51:59;;;;;;;1.73;1.50;;;9.00;98.80;;;;;;4996760;28;20030;-88
2024/04/02 00:54:25;;;;;;;2.03;1.23;;;9.00;98.20;;;;;;4998973;28;20018;-89
2024/04/02 00:56:51;;;;;;;1.38;1.27;;;9.00;98.00;;;;;;4997448;28;20105;-88
2024/04/02 00:59:17;;;;;;;2.72;1.10;;;9.00;96.70;;;;;;4997093;28;20050;-89
2024/04/02 01:01:43;;;;;;;1.45;0.88;;;9.00;97.70;;;;;;4997149;28;20030;-88
2024/04/02 01:04:10;;;;;;;2.13;1.05;;;9.00;97.40;;;;;;5004220;28;20025;-89
2024/04/02 01:06:37;;;;;;;1.92;1.60;;;9.00;97.20;;;;;;4979071;28;20034;-89
2024/04/02 01:09:04;;;;;;;1.67;1.58;;;9.00;97.50;;;;;;4997047;28;20049;-89
2024/04/02 01:11:31;;;;;;;1.20;1.13;;;9.00;97.90;;;;;;4996763;28;20022;-89
2024/04/02 01:13:57;;;;;;;1.35;1.25;;;8.90;97.30;;;;;;4996828;28;20031;-89
2024/04/02 01:16:22;;;;;;;1.10;1.08;;;9.00;97.80;;;;;;4996742;28;20026;-89
2024/04/02 01:18:49;;;;;;;1.80;1.38;;;8.90;97.90;;;;;;4996940;28;20469;-90
2024/04/02 01:21:16;;;;;;;1.27;1.23;;;9.00;98.30;;;;;;4996384;28;20057;-88
2024/04/02 01:23:42;;;;;;;1.38;1.23;;;8.90;98.10;;;;;;4996238;28;20038;-88
2024/04/02 01:26:08;;;;;;;1.50;1.40;;;9.00;97.80;;;;;;4999465;28;20033;-89
2024/04/02 01:28:34;;;;;;;2.20;2.10;;;9.00;97.10;;;;;;5004408;28;20022;-88
2024/04/02 01:31:02;;;;;;;1.20;1.13;;;9.00;97.30;;;;;;4995792;28;20105;-90
2024/04/02 01:33:28;;;;;;;1.33;1.33;;;9.00;97.50;;;;;;4995777;28;20030;-89
2024/04/02 01:35:54;;;;;;;1.98;0.88;;;9.00;97.40;;;;;;4996355;28;20023;-88
2024/04/02 01:38:20;;;;;;;1.48;0.82;;;9.00;97.00;;;;;;4994450;28;20042;-88
2024/04/02 01:40:45;;;;;;;1.17;0.98;;;9.00;97.60;;;;;;4985081;28;20029;-89
2024/04/02 01:43:11;;;;;;;1.85;1.30;;;9.00;96.70;;;;;;4985664;28;20098;-89
2024/04/02 01:45:37;;;;;;;1.48;1.30;;;9.00;97.50;;;;;;4996244;28;20034;-92
2024/04/02 01:48:04;;;;;;;2.38;1.38;;;9.00;98.10;;;;;;4996524;28;20037;-89
2024/04/02 01:50:29;;;;;;;2.78;1.88;;;9.00;98.20;;;;;;4996299;28;20034;-88
2024/04/02 01:52:55;;;;;;;1.90;1.05;;;9.00;97.30;;;;;;4996313;28;20524;-87
2024/04/02 01:55:21;;;;;;;1.48;1.38;;;9.00;96.90;;;;;;4996279;28;20053;-89
2024/04/02 01:57:46;;;;;;;2.55;1.15;;;9.00;97.20;;;;;;4996490;28;20023;-89
2024/04/02 02:00:14;;;;;;;1.70;1.40;;;9.00;97.20;;;;;;4996548;28;20054;-88
2024/04/02 02:02:40;;;;;;;1.27;1.17;;;9.00;97.40;;;;;;4995634;28;20022;-88
2024/04/02 02:05:06;;;;;;;1.42;1.33;;;9.00;97.30;;;;;;4996208;28;20034;-88
2024/04/02 02:07:31;;;;;;;2.38;2.28;;;9.00;97.10;;;;;;4996117;28;20477;-89
2024/04/02 02:09:57;;;;;;;2.38;1.10;;;9.00;96.60;;;;;;4995656;28;20050;-89
2024/04/02 02:12:23;;;;;;;1.90;1.80;;;9.10;97.10;;;;;;4994997;28;20106;-89
2024/04/02 02:14:48;;;;;;;1.73;1.27;;;9.00;96.00;;;;;;4996264;28;20428;-87
2024/04/02 02:17:14;;;;;;;1.08;0.98;;;9.10;96.30;;;;;;5003529;28;20029;-88
2024/04/02 02:19:39;;;;;;;1.20;1.05;;;9.10;95.60;;;;;;4999346;28;20520;-89
2024/04/02 02:22:05;;;;;;;1.65;1.50;;;9.10;96.40;;;;;;4999318;28;20018;-88
2024/04/02 02:24:31;;;;;;;1.95;1.30;;;9.10;96.30;;;;;;5000163;28;20066;-88
2024/04/02 02:26:58;;;;;;;1.45;1.30;;;9.10;97.00;;;;;;4999756;28;20034;-89
2024/04/02 02:29:25;;;;;;;1.00;1.00;;;9.10;96.10;;;;;;5001644;28;20027;-89
2024/04/02 02:31:52;;;;;;;1.42;1.05;;;9.00;96.90;;;;;;5004370;28;20381;-88
2024/04/02 02:34:18;;;;;;;2.22;1.25;;;9.00;97.30;;;;;;4992741;28;20027;-89
2024/04/02 02:36:43;;;;;;;1.45;1.25;;;9.00;98.20;;;;;;4977932;28;20049;-89
2024/04/02 02:39:13;;;;;;;1.58;1.48;;;8.90;98.00;;;;;;4998908;28;20084;-88
2024/04/02 02:41:39;;;;;;;1.17;1.00;;;8.90;99.30;;;;;;4998628;28;20029;-88
2024/04/02 02:44:05;;;;;;;1.80;1.50;;;8.90;99.50;;;;;;4997980;28;20088;-90
2024/04/02 02:46:31;;;;;;;2.25;1.42;;;8.90;99.80;;;;;;5004515;28;20465;-89
2024/04/02 02:48:59;;;;;;;1.67;1.42;;;8.80;99.90;;;;;;4999490;28;20077;-88
2024/04/02 02:51:25;;;;;;;1.38;1.15;;;8.80;99.90;;;;;;4999674;28;20026;-89
2024/04/02 02:53:50;;;;;;;2.05;1.17;;;8.70;99.90;;;;;;4999468;28;20057;-89
2024/04/02 02:56:16;;;;;;;1.63;1.35;;;8.70;99.90;;;;;;5017215;28;20025;-90
2024/04/02 02:58:42;;;;;;;1.70;1.35;;;8.70;99.90;;;;;;5013181;28;20029;-89
2024/04/02 03:01:08;;;;;;;2.42;1.60;;;8.70;99.90;;;;;;4998626;28;20137;-89
2024/04/02 03:03:34;;;;;;;1.60;1.33;;;8.70;99.90;;;;;;4998776;28;20033;-89
2024/04/02 03:05:59;;;;;;;1.55;1.45;;;8.70;99.90;;;;;;4998878;28;20042;-88
2024/04/02 03:08:26;;;;;;;1.52;1.27;;;8.70;99.90;;;;;;4999404;28;20053;-89
2024/04/02 03:10:55;;;;;;;1.58;0.93;;;8.60;99.90;;;;;;4982019;28;20037;-89
2024/04/02 03:13:23;;;;;;;3.53;1.13;;;8.70;99.90;;;;;;4999406;28;20027;-88
2024/04/02 03:15:49;;;;;;;1.27;0.90;;;8.60;99.90;;;;;;4999263;28;20027;-89
2024/04/02 03:18:14;;;;;;;1.63;1.52;;;8.60;99.90;;;;;;4999649;28;20088;-90
2024/04/02 03:20:40;;;;;;;1.83;1.58;;;8.50;99.90;;;;;;4999077;28;20027;-91
2024/04/02 03:23:06;;;;;;;1.40;1.30;;;8.50;99.90;;;;;;4998813;28;20433;-90
2024/04/02 03:25:31;;;;;;;2.05;1.42;;;8.50;99.90;;;;;;4999432;28;20029;-92
2024/04/02 03:27:57;;;;;;;1.45;1.13;;;8.50;99.90;;;;;;5000017;28;20121;-90
2024/04/02 03:30:23;;;;;;;1.55;1.42;;;8.50;99.90;;;;;;4999162;28;20045;-91
2024/04/02 03:32:48;;;;;;;1.40;1.30;;;8.40;99.90;;;;;;4999487;28;20086;-91
2024/04/02 03:35:15;;;;;;;1.10;0.90;;;8.40;99.90;;;;;;5000669;28;20033;-91
2024/04/02 03:37:40;;;;;;;2.95;0.88;;;8.40;99.90;;;;;;4999222;28;20077;-92
2024/04/02 03:40:06;;;;;;;1.77;0.98;;;8.30;99.90;;;;;;4999691;28;20030;-92
2024/04/02 03:42:32;;;;;;;1.23;1.10;;;8.30;99.90;;;;;;4997781;28;20022;-93
2024/04/02 03:44:58;;;;;;;1.48;1.13;;;8.30;99.90;;;;;;5002689;28;20030;-93
2024/04/02 03:47:28;;;;;;;1.27;0.65;;;8.30;99.90;;;;;;4999127;28;20400;-92
2024/04/02 03:49:55;;;;;;;1.55;1.20;;;8.30;99.90;;;;;;4983010;28;20405;-94
2024/04/02 03:52:22;;;;;;;2.58;1.30;;;8.30;99.90;;;;;;4983574;28;20027;-93
2024/04/02 03:54:48;;;;;;;1.83;1.05;;;8.30;99.90;;;;;;5013722;28;20037;-92
2024/04/02 03:57:14;;;;;;;1.55;1.35;;;8.30;99.90;;;;;;4999564;28;20026;-93
2024/04/02 03:59:39;;;;;;;1.58;1.23;;;8.40;99.90;;;;;;4999058;28;20033;-93
2024/04/02 04:02:05;;;;;;;1.73;1.63;;;8.30;99.90;;;;;;4999064;28;20026;-92
2024/04/02 04:04:31;;;;;;;1.15;1.05;;;8.30;99.90;;;;;;4999282;28;20034;-92
2024/04/02 04:06:56;;;;;;;1.00;1.00;;;8.30;99.90;;;;;;4999199;28;20034;-93
2024/04/02 04:09:23;;;;;;;1.05;1.05;;;8.30;99.90;;;;;;4997102;28;20073;-91
2024/04/02 04:11:50;;;;;;;1.63;1.52;;;8.30;99.90;;;;;;4996753;28;20022;-91
2024/04/02 04:14:15;;;;;;;0.88;0.75;;;8.30;99.90;;;;;;5003036;28;20022;-91
2024/04/02 04:16:41;;;;;;;1.38;1.27;;;8.30;99.90;;;;;;4998212;28;20042;-91
2024/04/02 04:19:07;;;;;;;1.70;1.60;;;8.40;99.90;;;;;;4999611;28;20393;-93
2024/04/02 04:21:32;;;;;;;1.58;0.73;;;8.40;99.90;;;;;;4997827;28;20165;-92
2024/04/02 04:23:58;;;;;;;1.38;0.90;;;8.40;99.90;;;;;;4998960;28;20485;-92
2024/04/02 04:26:24;;;;;;;1.42;1.30;;;8.40;99.90;;;;;;4998231;28;20038;-93
2024/04/02 04:28:49;;;;;;;2.75;1.38;;;8.40;99.90;;;;;;5007487;28;20031;-93
2024/04/02 04:31:15;;;;;;;1.13;0.95;;;8.40;99.90;;;;;;5000090;28;20045;-91
2024/04/02 04:33:41;;;;;;;1.40;1.30;;;8.40;99.90;;;;;;4980791;28;20030;-92
2024/04/02 04:36:29;;;;;;;1.42;1.25;;;8.50;99.90;;;;;;5000432;28;20018;-92
2024/04/02 04:39:10;;;;;;;1.52;1.42;;;8.40;99.90;;;;;;4964637;28;20081;-92
2024/04/02 04:41:44;;;;;;;0.98;0.77;;;8.40;99.90;;;;;;4983631;28;20031;-93
2024/04/02 04:44:28;;;;;;;1.77;1.67;;;8.40;99.90;;;;;;4983649;28;20066;-92
2024/04/02 04:46:57;;;;;;;2.67;1.48;;;8.30;99.90;;;;;;5000383;28;20509;-92
2024/04/02 04:49:23;;;;;;;1.02;0.85;;;8.20;99.90;;;;;;4982862;28;20042;-92
2024/04/02 04:51:49;;;;;;;1.33;1.00;;;8.20;99.90;;;;;;4980861;28;20027;-91
2024/04/02 04:54:14;;;;;;;1.75;1.20;;;8.20;99.90;;;;;;4993375;28;20045;-92
2024/04/02 04:56:40;;;;;;;1.35;1.25;;;8.20;99.90;;;;;;4974936;28;20516;-93
2024/04/02 04:59:06;;;;;;;1.80;1.10;;;8.20;99.90;;;;;;4992992;28;20048;-92
2024/04/02 05:01:31;;;;;;;1.55;1.30;;;8.10;99.90;;;;;;4972763;28;20023;-92
2024/04/02 05:03:57;;;;;;;1.45;1.38;;;8.20;99.90;;;;;;4996195;28;20543;-94
2024/04/02 05:06:23;;;;;;;1.25;0.95;;;8.10;99.90;;;;;;4988850;28;20068;-94
2024/04/02 05:08:48;;;;;;;1.30;1.00;;;8.10;99.90;;;;;;4993951;28;20121;-92
2024/04/02 05:11:14;;;;;;;1.38;1.27;;;8.10;99.90;;;;;;4999773;28;20026;-92
2024/04/02 05:13:40;;;;;;;1.38;1.30;;;8.10;99.90;;;;;;4987990;28;20034;-93
2024/04/02 05:16:06;;;;;;;1.42;1.33;;;8.20;99.90;;;;;;5000567;28;20026;-94
2024/04/02 05:18:35;;;;;;;2.20;0.77;;;8.20;99.90;;;;;;4998430;28;20030;-91
2024/04/02 05:21:03;;;;;;;1.27;0.80;;;8.20;99.90;;;;;;4989277;28;20015;-93
2024/04/02 05:23:29;;;;;;;1.38;1.10;;;8.20;99.90;;;;;;4998423;28;20551;-92
2024/04/02 05:25:58;;;;;;;1.00;0.85;;;8.20;99.90;;;;;;4997605;28;20034;-92
2024/04/02 05:28:24;;;;;;;1.88;1.48;;;8.10;99.90;;;;;;4994183;28;20030;-92
2024/04/02 05:30:51;;;;;;;0.70;0.70;;;8.10;99.90;;;;;;4989414;28;20096;-93
2024/04/02 05:33:17;;;;;;;1.83;1.00;;;8.00;99.90;;;;;;4985400;28;20497;-92
2024/04/02 05:35:42;;;;;;;1.55;1.45;;;8.10;99.90;;;;;;4982967;28;20023;-91
2024/04/02 05:38:08;;;;;;;1.60;1.02;;;8.00;99.90;;;;;;4985028;28;20061;-92
2024/04/02 05:40:33;;;;;;;1.27;1.00;;;8.10;99.90;;;;;;4999493;28;20054;-92
2024/04/02 05:42:59;;;;;;;1.15;1.05;;;8.00;99.90;;;;;;5005146;28;20030;-92
2024/04/02 05:45:25;;;;;;;1.30;1.20;;;8.00;99.90;;;;;;5008164;28;20018;-93
2024/04/02 05:47:53;;;;;;;2.10;1.67;;;8.00;99.90;;;;;;4998600;28;20029;-92
2024/04/02 05:50:18;;;;;;;2.00;1.48;;;7.90;99.90;;;;;;4978441;28;20127;-92
2024/04/02 05:52:44;;;;;;;1.70;1.52;;;8.00;99.90;;;;;;4979907;28;20075;-92
2024/04/02 05:55:12;;;;;;;1.05;0.93;;;7.90;99.90;;;;;;4976664;28;20027;-94
2024/04/02 05:57:57;;;;;;;1.52;1.00;;;7.90;99.90;;;;;;4996320;28;20506;-93
2024/04/02 06:00:33;;;;;;;1.75;1.30;;;7.90;99.90;;;;;;4978402;28;20041;-92
2024/04/02 06:03:00;;;;;;;2.25;1.10;;;7.90;99.90;;;;;;4997257;28;20027;-91
2024/04/02 06:05:35;;;;;;;1.73;1.63;;;7.90;99.90;;;;;;4997129;28;20102;-93
2024/04/02 06:08:06;;;;;;;1.27;1.00;;;7.90;99.90;;;;;;4976799;28;20701;-93
2024/04/02 06:10:34;;;;;;;2.45;1.40;;;7.90;99.90;;;;;;4994351;28;20034;-95
2024/04/02 06:13:13;;;;;;;;;;;;;;;;;;;;;
2024/04/02 06:15:42;;;;;;;3.15;1.40;;;7.90;99.90;;;;;;4993921;28;20102;-93
2024/04/02 06:18:09;;;;;;;1.40;1.30;;;8.00;99.90;;;;;;4996571;28;20022;-93
2024/04/02 06:20:34;;;;;;;1.25;1.05;;;8.10;99.90;;;;;;4979810;28;20030;-93
2024/04/02 06:23:03;;;;;;;0.75;0.75;;;8.10;99.90;;;;;;4961068;28;20036;-94
2024/04/02 06:25:36;;;;;;;1.23;0.95;;;8.20;99.90;;;;;;4957969;28;20046;-94
2024/04/02 06:28:02;;;;;;;1.77;1.30;;;8.20;99.90;;;;;;4986618;28;20057;-95
2024/04/02 06:30:28;;;;;;;1.25;0.75;;;8.30;99.90;;;;;;4975695;28;20512;-92
2024/04/02 06:33:01;;;;;;;1.30;0.98;;;8.30;99.90;;;;;;4951182;28;20042;-92
2024/04/02 06:35:29;;;;;;;1.33;1.23;;;8.30;99.90;;;;;;4967890;28;20019;-93
2024/04/02 06:38:03;;;;;;;2.35;0.93;;;8.40;99.90;;;;;;4968475;28;20109;-96
2024/04/02 06:40:29;;;;;;;2.65;1.23;;;8.40;99.90;;;;;;4979525;28;20384;-92
2024/04/02 06:42:55;;;;;;;1.02;0.80;;;8.60;99.90;;;;;;4988912;28;20085;-93
2024/04/02 06:45:23;;;;;;;1.08;1.02;;;8.70;99.90;;;;;;4959424;28;20070;-93
2024/04/02 06:47:51;;;;;;;2.15;0.95;;;8.80;99.90;;;;;;4964789;28;20026;-93
2024/04/02 06:50:16;;;;;;;;;;;8.90;99.90;;;;;;4940244;28;20038;-92
2024/04/02 06:52:42;;;;;;;3.85;0.93;;;8.90;99.90;;;;;;4956157;28;20073;-93
2024/04/02 06:55:11;;;;;;;3.00;1.17;;;8.90;99.90;;;;;;4985261;28;20034;-93
2024/04/02 06:57:37;;;;;;;2.00;0.98;;;8.90;99.90;;;;;;4969751;28;20023;-94
2024/04/02 07:00:06;;;;;;;2.50;1.08;;;8.90;99.90;;;;;;4966361;28;20577;-93
2024/04/02 07:02:32;;;;;;;1.92;0.95;;;8.80;99.90;;;;;;4968023;28;20068;-93
2024/04/02 07:04:59;;;;;;;1.65;1.27;;;8.80;99.90;;;;;;4945673;28;20108;-93
2024/04/02 07:07:24;;;;;;;1.85;1.13;;;8.80;99.90;;;;;;4954554;28;20053;-92
2024/04/02 07:09:50;;;;;;;1.40;0.57;;;8.70;99.90;;;;;;4984819;28;20394;-95
2024/04/02 07:12:16;;;;;;;2.95;1.50;;;8.70;99.90;;;;;;4960024;28;20023;-93
2024/04/02 07:14:42;;;;;;;2.63;1.88;;;8.70;99.90;;;;;;4966316;28;21443;-91
2024/04/02 07:17:07;;;;;;;1.88;0.90;;;8.80;99.90;;;;;;4958806;28;20098;-93
2024/04/02 07:19:33;;;;;;;1.90;1.50;;;8.80;99.90;;;;;;4975608;28;20066;-93
2024/04/02 07:21:58;;;;;;;1.65;1.55;;;8.80;99.90;;;;;;4979923;28;20084;-91
2024/04/02 07:24:24;;;;;;;1.65;1.23;;;8.90;99.90;;;;;;4969748;28;20092;-91
2024/04/02 07:26:50;;;;;;;2.22;1.75;;;9.00;99.90;;;;;;4960382;28;20084;-93
2024/04/02 07:29:15;;;;;;;2.75;0.75;;;9.00;99.90;;;;;;4957486;28;20445;-92
2024/04/02 07:31:41;;;;;;;2.90;0.85;;;9.10;99.90;;;;;;4951176;28;20038;-91
2024/04/02 07:34:08;;;;;;;1.65;0.82;;;9.20;99.90;;;;;;4980679;28;20682;-95
2024/04/02 07:36:33;;;;;;;1.33;1.13;;;9.20;99.90;;;;;;4964904;28;20022;-92
2024/04/02 07:38:59;;;;;;;3.65;1.98;;;9.30;99.90;;;;;;4965055;28;20054;-91
2024/04/02 07:41:25;;;;;;;3.45;1.08;;;9.40;99.90;;;;;;4958565;28;20125;-91
2024/04/02 07:43:50;;;;;;;1.55;0.82;;;9.60;99.90;;;;;;4971570;28;20100;-94
2024/04/02 07:46:16;;;;;;;2.20;0.82;;;9.70;99.90;;;;;;4939552;28;20555;-94
2024/04/02 07:48:42;;;;;;;2.45;1.00;;;9.80;98.80;;;;;;4978103;28;20141;-93
2024/04/02 07:51:09;;;;;;;1.02;0.82;;;9.90;96.80;;;;;;4966468;28;20093;-92
2024/04/02 07:53:35;;;;;;;3.58;0.77;;;10.00;97.00;;;;;;4964553;28;20034;-91
2024/04/02 07:56:01;;;;;;;2.45;0.95;;;10.00;95.70;;;;;;4955360;28;20495;-92
2024/04/02 07:58:27;;;;;;;6.35;1.00;;;10.00;96.20;;;;;;4977448;28;20490;-90
2024/04/02 08:00:53;;;;;;;5.35;0.85;;;10.20;96.20;;;;;;4975407;28;20066;-92
2024/04/02 08:03:18;;;;;;;2.35;1.00;;;10.30;93.90;;;;;;4972051;28;20026;-91
2024/04/02 08:05:44;;;;;;;5.05;1.23;;;10.30;93.10;;;;;;4972371;28;20803;-90
2024/04/02 08:08:09;;;;;;;2.67;1.08;;;10.40;93.10;;;;;;4975326;28;20073;-90
2024/04/02 08:10:35;;;;;;;3.33;1.02;;;10.50;91.70;;;;;;4973389;28;20053;-90
2024/04/02 08:13:01;;;;;;;2.15;1.20;;;10.50;92.40;;;;;;4956973;28;20038;-90
2024/04/02 08:15:26;;;;;;;2.55;1.48;;;10.50;95.00;;;;;;4974673;28;20631;-91
2024/04/02 08:17:52;;;;;;;3.53;0.80;;;10.60;91.90;;;;;;4974133;28;20111;-90
2024/04/02 08:20:18;;;;;;;2.58;1.23;;;10.60;90.20;;;;;;4960656;28;20026;-90
2024/04/02 08:22:44;;;;;;;2.53;1.10;;;10.60;91.50;;;;;;4976065;28;20043;-90
2024/04/02 08:25:10;;;;;;;3.80;1.20;;;10.60;91.90;;;;;;4971438;28;20034;-91
2024/04/02 08:27:36;;;;;;;2.40;0.88;;;10.60;90.60;;;;;;4968994;28;20054;-90
2024/04/02 08:30:05;;;;;;;4.07;1.58;;;10.70;89.40;;;;;;4969771;28;20504;-90
2024/04/02 08:32:31;;;;;;;4.85;1.40;;;10.80;89.10;;;;;;4972699;28;20154;-88
2024/04/02 08:35:00;;;;;;;3.55;0.80;;;10.80;88.80;;;;;;4971221;28;20041;-90
2024/04/02 08:37:26;;;;;;;2.90;1.40;;;10.70;88.80;;;;;;4973240;28;20583;-91
2024/04/02 08:39:51;;;;;;;3.80;1.42;;;10.70;89.00;;;;;;4977079;28;20054;-90
2024/04/02 08:42:19;;;;;;;2.92;1.52;;;10.80;89.00;;;;;;4969616;28;20461;-89
2024/04/02 08:44:46;;;;;;;3.90;1.60;;;11.00;90.30;;;;;;4969434;28;20113;-90
2024/04/02 08:47:13;;;;;;;4.10;1.10;;;11.30;87.30;;;;;;4970159;28;20094;-90
2024/04/02 08:49:40;;;;;;;3.72;1.20;;;11.20;85.70;;;;;;4969709;28;20045;-90
2024/04/02 08:52:05;;;;;;;3.63;1.08;;;11.20;83.40;;;;;;4974563;28;20091;-90
2024/04/02 08:54:32;;;;;;;2.58;0.98;;;11.30;83.10;;;;;;4976697;28;20046;-91
2024/04/02 08:56:58;;;;;;;6.05;1.25;;;11.10;83.10;;;;;;4968210;28;20610;-89
2024/04/02 08:59:26;;;;;;;3.10;1.38;;;11.00;84.40;;;;;;4971071;28;20108;-90
2024/04/02 09:01:54;;;;;;;5.03;1.15;;;11.10;86.60;;;;;;4971268;28;20046;-90
2024/04/02 09:04:20;;;;;;;2.75;2.20;;;11.10;85.30;;;;;;4967852;28;20719;-90
2024/04/02 09:06:46;;;;;;;2.67;1.13;;;11.10;85.10;;;;;;4966705;28;20047;-91
2024/04/02 09:09:23;;;;;;;4.97;1.27;;;10.90;85.30;;;;;;4971486;28;20053;-90
2024/04/02 09:11:52;;;;;;;5.10;1.35;;;10.80;86.80;;;;;;4970829;28;20031;-90
2024/04/02 09:14:22;;;;;;;4.25;1.33;;;10.70;82.70;;;;;;4970758;28;20069;-90
2024/04/02 09:16:48;;;;;;;6.28;1.92;;;10.60;84.00;;;;;;4969694;28;20050;-90
2024/04/02 09:19:14;;;;;;;7.20;1.70;;;10.60;85.10;;;;;;4978206;28;20088;-91
2024/04/02 09:21:40;;;;;;;8.10;1.05;;;10.60;85.10;;;;;;4953769;28;20023;-91
2024/04/02 09:24:08;;;;;;;3.33;1.77;;;10.60;85.80;;;;;;4973287;28;20027;-90
2024/04/02 09:26:33;;;;;;;;;;;10.60;85.70;;;;;;4968846;28;20046;-90
2024/04/02 09:28:59;;;;;;;5.07;1.17;;;10.60;85.90;;;;;;4973307;28;19910;-90
2024/04/02 09:31:27;;;;;;;7.22;2.50;;;10.70;86.50;;;;;;4952338;28;20130;-89
2024/04/02 09:33:58;;;;;;;3.30;1.40;;;10.90;84.90;;;;;;4971091;28;21783;-91
2024/04/02 09:36:45;;;;;;;6.15;1.60;;;11.00;82.80;;;;;;4973484;28;20551;-91
2024/04/02 09:39:12;;;;;;;4.88;1.95;;;11.30;81.60;;;;;;4971140;28;20026;-90
2024/04/02 09:41:40;;;;;;;3.63;1.02;;;11.40;78.00;;;;;;4967437;28;20034;-88
2024/04/02 09:44:10;;;;;;;3.45;1.20;;;11.50;79.30;;;;;;4972734;28;20034;-90
2024/04/02 09:46:38;;;;;;;5.35;1.23;;;11.50;79.40;;;;;;4971342;28;20047;-90
2024/04/02 09:49:05;;;;;;;4.82;1.58;;;11.40;77.00;;;;;;4974944;28;20755;-90
2024/04/02 09:51:32;;;;;;;7.38;1.83;;;11.40;76.50;;;;;;4972826;28;20038;-90
2024/04/02 09:53:58;;;;;;;5.78;1.42;;;11.40;77.10;;;;;;4976118;28;20070;-90
2024/04/02 09:56:24;;;;;;;2.33;1.08;;;11.30;75.70;;;;;;4973505;28;20058;-90
2024/04/02 09:58:53;;;;;;;5.25;0.93;;;11.30;76.70;;;;;;4971922;28;20089;-89
2024/04/02 10:01:24;;;;;;;5.40;1.23;;;11.30;76.80;;;;;;4968713;28;20130;-90
2024/04/02 10:03:56;;;;;;;6.10;1.95;;;11.30;77.80;;;;;;4972210;28;20110;-91
2024/04/02 10:06:22;;;;;;;7.53;1.00;;;11.20;79.70;;;;;;4969758;28;20034;-89
2024/04/02 10:08:59;;;;;;;4.50;1.33;;;11.10;80.30;;;;;;4967836;28;20030;-90
2024/04/02 10:11:37;;;;;;;4.05;1.42;;;11.20;76.00;;;;;;4951633;28;20110;-94
2024/04/02 10:14:06;;;;;;;1.67;1.15;;;11.40;74.50;;;;;;4973816;28;20046;-89
2024/04/02 10:16:32;;;;;;;5.00;1.00;;;11.60;70.30;;;;;;4983781;28;20034;-91
2024/04/02 10:19:00;;;;;;;3.03;1.80;;;11.70;71.90;;;;;;4971574;28;20042;-88
2024/04/02 10:21:27;;;;;;;4.95;1.35;;;11.80;69.70;;;;;;4972569;28;20057;-91
2024/04/02 10:23:54;;;;;;;3.88;1.15;;;11.80;69.50;;;;;;4954389;28;20033;-90
2024/04/02 10:26:21;;;;;;;2.30;1.42;;;11.80;66.00;;;;;;4966463;28;20527;-91
2024/04/02 10:28:48;;;;;;;4.35;1.02;;;11.70;71.30;;;;;;4969744;28;20043;-92
2024/04/02 10:31:17;;;;;;;6.53;0.98;;;11.50;70.30;;;;;;4972528;28;20587;-91
2024/04/02 10:33:43;;;;;;;7.32;1.40;;;11.60;70.60;;;;;;4972057;28;20110;-91
2024/04/02 10:36:12;;;;;;;2.83;0.70;;;11.40;75.60;;;;;;4962753;28;20523;-89
2024/04/02 10:38:38;;;;;;;4.10;1.02;;;11.80;70.60;;;;;;4976085;28;20033;-90
2024/04/02 10:41:04;;;;;;;5.47;1.38;;;12.30;70.50;;;;;;4973924;28;20058;-91
2024/04/02 10:43:29;;;;;;;1.52;0.65;;;12.40;67.60;;;;;;4974107;28;20475;-89
2024/04/02 10:45:56;;;;;;;4.28;1.10;;;12.60;66.40;;;;;;4972591;28;20034;-90
2024/04/02 10:48:22;;;;;;;1.67;1.17;;;12.40;67.90;;;;;;4959095;28;20106;-90
2024/04/02 10:50:50;;;;;;;3.30;1.27;;;12.70;69.80;;;;;;4975180;28;21495;-89
2024/04/02 10:53:15;;;;;;;2.08;1.25;;;12.70;65.50;;;;;;4970876;28;20034;-90
2024/04/02 10:55:41;;;;;;;5.28;1.10;;;12.60;67.00;;;;;;4969584;28;20034;-92
2024/04/02 10:58:07;;;;;;;3.92;0.85;;;12.60;65.40;;;;;;4974711;28;20034;-90
2024/04/02 11:00:33;;;;;;;2.15;0.73;;;12.60;66.90;;;;;;4974802;28;20039;-89
2024/04/02 11:02:59;;;;;;;4.28;1.05;;;12.50;69.40;;;;;;4972242;28;20062;-91
2024/04/02 11:05:25;;;;;;;3.20;0.85;;;12.40;67.60;;;;;;4971527;28;20030;-90
2024/04/02 11:07:50;;;;;;;3.33;1.73;;;12.50;69.30;;;;;;4975028;28;20031;-90
2024/04/02 11:10:17;;;;;;;5.22;1.20;;;12.70;68.00;;;;;;4974444;28;20030;-90
2024/04/02 11:12:43;;;;;;;4.85;1.42;;;13.10;63.90;;;;;;4975345;28;20110;-90
2024/04/02 11:15:10;;;;;;;2.25;0.90;;;13.50;62.10;;;;;;4972419;28;20031;-89
2024/04/02 11:17:37;;;;;;;;;;;13.50;58.00;;;;;;4971844;28;20099;-89
2024/04/02 11:20:09;;;;;;;3.20;1.17;;;13.50;57.50;;;;;;4974645;28;19984;-90
2024/04/02 11:25:20;;;;;;;2.78;0.63;;;13.40;57.30;;;;;;4970646;28;20041;-90
2024/04/02 11:27:46;;;;;;;5.25;0.88;;;13.40;59.20;;;;;;4972657;28;20149;-91
2024/04/02 11:30:15;;;;;;;4.38;1.10;;;13.30;57.20;;;;;;4971354;28;20058;-91
2024/04/02 11:32:40;;;;;;;5.85;1.02;;;13.30;59.30;;;;;;4970441;28;20112;-89
2024/04/02 11:35:09;;;;;;;3.28;1.65;;;12.80;61.60;;;;;;4970896;28;20030;-91
2024/04/02 11:37:35;;;;;;;5.28;1.15;;;12.90;64.00;;;;;;4972753;28;20057;-93
2024/04/02 11:40:02;;;;;;;1.88;0.85;;;12.90;61.50;;;;;;4972457;28;20027;-88
2024/04/02 11:42:29;;;;;;;2.33;1.00;;;12.70;59.50;;;;;;4970559;28;20031;-91
2024/04/02 11:44:57;;;;;;;2.42;0.80;;;12.70;59.50;;;;;;4971967;28;20030;-89
2024/04/02 11:47:24;;;;;;;2.47;0.80;;;12.60;61.80;;;;;;4970776;28;20052;-90
2024/04/02 11:49:50;;;;;;;4.95;1.48;;;12.50;61.00;;;;;;4972309;28;20037;-90
2024/04/02 11:52:16;;;;;;;3.60;1.25;;;12.40;62.30;;;;;;4971692;28;20141;-90
2024/04/02 11:54:41;;;;;;;3.65;0.82;;;12.40;63.70;;;;;;4971981;28;20027;-90
2024/04/02 12:02:40;;;;;;;4.07;0.82;;;12.60;68.50;;;;;;4967646;28;20053;-89
2024/04/02 12:05:06;;;;;;;4.32;0.73;;;12.70;67.80;;;;;;4969266;28;20034;-90
2024/04/02 12:07:32;;;;;;;2.70;0.80;;;13.10;67.00;;;;;;4950927;28;20482;-89
2024/04/02 12:09:59;;;;;;;2.47;1.58;;;13.20;67.20;;;;;;4945330;28;20031;-88
2024/04/02 12:12:28;;;;;;;2.42;1.33;;;13.40;63.20;;;;;;4972230;28;20026;-89
2024/04/02 12:14:55;;;;;;;3.15;0.52;;;13.60;57.60;;;;;;4974921;28;20034;-90
2024/04/02 12:17:22;;;;;;;2.50;0.52;;;13.40;59.60;;;;;;4969411;28;21359;-90
2024/04/02 12:19:52;;;;;;;2.83;0.60;;;12.90;61.70;;;;;;4971678;28;20163;-89
2024/04/02 12:22:18;;;;;;;2.88;1.00;;;12.50;69.10;;;;;;4971665;28;20034;-90
2024/04/02 12:24:45;;;;;;;3.03;1.02;;;12.40;71.20;;;;;;4972968;28;20401;-90
2024/04/02 12:27:10;;;;;;;2.42;1.13;;;12.30;70.40;;;;;;4965261;28;20030;-89
2024/04/02 12:29:36;;;;;;;2.92;0.88;;;12.30;75.00;;;;;;4970343;28;20038;-91
2024/04/02 12:32:03;;;;;;;1.70;0.88;;;12.30;75.50;;;;;;4970424;28;20101;-90
2024/04/02 12:34:29;;;;;;;3.95;1.67;;;12.90;74.90;;;;;;4970695;28;20576;-90
2024/04/02 12:36:55;;;;;;;4.35;0.85;;;13.60;70.70;;;;;;4968786;28;20041;-89
2024/04/02 12:39:21;;;;;;;2.15;1.50;;;13.60;70.50;;;;;;4974577;28;20030;-90
2024/04/02 12:41:50;;;;;;;1.63;0.98;;;13.20;66.80;;;;;;4970609;28;21683;-89
2024/04/02 12:44:16;;;;;;;2.15;0.88;;;13.30;66.90;;;;;;4967662;28;20027;-91
2024/04/02 12:46:41;;;;;;;3.75;1.00;;;13.80;64.30;;;;;;4970627;28;20026;-90
2024/04/02 12:49:09;;;;;;;2.70;0.70;;;14.00;64.30;;;;;;4957628;28;20038;-91
2024/04/02 12:51:36;;;;;;;4.03;1.23;;;14.00;60.80;;;;;;4966166;28;20061;-92
2024/04/02 12:54:02;;;;;;;3.03;0.50;;;14.00;60.70;;;;;;4970400;28;20037;-91
2024/04/02 12:56:28;;;;;;;1.63;0.70;;;13.80;63.30;;;;;;4969396;28;20025;-90
2024/04/02 12:58:55;;;;;;;1.73;0.85;;;13.40;63.10;;;;;;4967567;28;20690;-89
2024/04/02 13:01:21;;;;;;;1.73;0.85;;;13.20;68.80;;;;;;4972115;28;20047;-90